Katerina L — 3FQL2 — position and weather

sailwx.info

Track history (hours):
 
Tides and Currents Weather Stations Pressure Air Temp Water Temp Dewpoint Dewpoint Depression Visibility Wind Speed Wind Dir Waves Ship Positions

Katerina L

Last reported at 2015-Aug-29 08:17 UTC. Time now 2015-Aug-30 03:38 UTC.
Position N 33°57' E 034°27'.

Length 91 m; draft 5.4 m.

Type: Tanker. MMSI: 356460000.

Date/timePositionNaut miles runAvg speedWind from/ knotsBaromVisibWave heightAir tempDewpointWater temp
2015-Aug-29 08:17N 33°57' E 034°27'5 7.2
2015-Aug-29 07:33N 33°59' E 034°21'6 5.6
2015-Aug-29 06:25N 34°00' E 034°14'9 9.2
2015-Aug-29 05:23N 34°02' E 034°03'7 7.3
2015-Aug-29 04:27N 34°03' E 033°55'32 7.5
2015-Aug-29 00:15N 34°09' E 033°17'6 7.8
2015-Aug-28 23:31N 34°10' E 033°10'8 7.9
2015-Aug-28 22:27N 34°12' E 033°00'7 7.9
2015-Aug-28 21:33N 34°13' E 032°52'8 7.8
2015-Aug-28 20:32N 34°15' E 032°43'8 7.8
2015-Aug-28 19:33N 34°16' E 032°34'8 7.6
2015-Aug-28 18:33N 34°18' E 032°24'10 7.3
2015-Aug-28 17:15N 34°19' E 032°13'5 7.4
2015-Aug-28 16:33N 34°20' E 032°07'8 7.5
2015-Aug-28 15:30N 34°21' E 031°58'7 7.5
2015-Aug-28 14:33N 34°23' E 031°49'31 7.7
2015-Aug-28 10:29N 34°29' E 031°12'302 6.8
2015-Aug-26 14:05N 35°51' E 025°16'4 6.5
2015-Aug-26 13:32N 35°53' E 025°12'7 6.4
2015-Aug-26 12:26N 35°56' E 025°05'5 6.0
2015-Aug-26 11:33N 35°58' E 024°58'7 5.5
2015-Aug-26 10:22N 36°01' E 024°52'5 5.5
2015-Aug-26 09:32N 36°04' E 024°47'  
2015-Aug-23 13:25N 37°47' E 015°58'7 6.8
2015-Aug-23 12:26N 37°49' E 015°50'6 6.5
2015-Aug-23 11:33N 37°51' E 015°44'6 6.4
2015-Aug-23 10:33N 37°56' E 015°38'7 6.7
2015-Aug-23 09:33N 38°02' E 015°33'7 7.2
2015-Aug-23 08:33N 38°09' E 015°35'7 6.6
2015-Aug-23 07:33N 38°15' E 015°38'6 6.2
2015-Aug-23 06:33N 38°21' E 015°39'7 7.4
2015-Aug-23 05:33N 38°28' E 015°35'7 7.3
2015-Aug-23 04:33N 38°34' E 015°30'  
2015-Aug-20 22:29N 43°14' E 010°07'23 2.8
2015-Aug-20 14:16N 43°35' E 010°19'0 0.0
2015-Aug-20 13:31N 43°35' E 010°19'0 0.0
2015-Aug-20 11:31N 43°35' E 010°19'0 0.0
2015-Aug-20 10:16N 43°35' E 010°19'0 0.0
2015-Aug-20 09:25N 43°35' E 010°19'0 0.0
2015-Aug-20 08:28N 43°35' E 010°19'0 0.0
2015-Aug-20 07:25N 43°35' E 010°19'0 0.0
2015-Aug-20 06:31N 43°35' E 010°19'33 2.0
2015-Aug-19 13:33N 43°03' E 010°06'  
Track history (hours):
 
Tides and Currents Weather Stations Pressure Air Temp Water Temp Dewpoint Dewpoint Depression Visibility Wind Speed Wind Dir Waves Ship Positions

Katerina L

Last reported at 2015-Aug-29 08:17 UTC. Time now 2015-Aug-30 03:38 UTC.
Position N 33°57' E 034°27'.

Length 91 m; draft 5.4 m.

Type: Tanker. MMSI: 356460000.

Date/timePositionNaut miles runAvg speedWind from/ knotsBaromVisibWave heightAir tempDewpointWater temp
2015-Aug-29 08:17N 33°57' E 034°27'5 7.2
2015-Aug-29 07:33N 33°59' E 034°21'6 5.6
2015-Aug-29 06:25N 34°00' E 034°14'9 9.2
2015-Aug-29 05:23N 34°02' E 034°03'7 7.3
2015-Aug-29 04:27N 34°03' E 033°55'32 7.5
2015-Aug-29 00:15N 34°09' E 033°17'6 7.8
2015-Aug-28 23:31N 34°10' E 033°10'8 7.9
2015-Aug-28 22:27N 34°12' E 033°00'7 7.9
2015-Aug-28 21:33N 34°13' E 032°52'8 7.8
2015-Aug-28 20:32N 34°15' E 032°43'8 7.8
2015-Aug-28 19:33N 34°16' E 032°34'8 7.6
2015-Aug-28 18:33N 34°18' E 032°24'10 7.3
2015-Aug-28 17:15N 34°19' E 032°13'5 7.4
2015-Aug-28 16:33N 34°20' E 032°07'8 7.5
2015-Aug-28 15:30N 34°21' E 031°58'7 7.5
2015-Aug-28 14:33N 34°23' E 031°49'31 7.7
2015-Aug-28 10:29N 34°29' E 031°12'302 6.8
2015-Aug-26 14:05N 35°51' E 025°16'4 6.5
2015-Aug-26 13:32N 35°53' E 025°12'7 6.4
2015-Aug-26 12:26N 35°56' E 025°05'5 6.0
2015-Aug-26 11:33N 35°58' E 024°58'7 5.5
2015-Aug-26 10:22N 36°01' E 024°52'5 5.5
2015-Aug-26 09:32N 36°04' E 024°47'  
2015-Aug-23 13:25N 37°47' E 015°58'7 6.8
2015-Aug-23 12:26N 37°49' E 015°50'6 6.5
2015-Aug-23 11:33N 37°51' E 015°44'6 6.4
2015-Aug-23 10:33N 37°56' E 015°38'7 6.7
2015-Aug-23 09:33N 38°02' E 015°33'7 7.2
2015-Aug-23 08:33N 38°09' E 015°35'7 6.6
2015-Aug-23 07:33N 38°15' E 015°38'6 6.2
2015-Aug-23 06:33N 38°21' E 015°39'7 7.4
2015-Aug-23 05:33N 38°28' E 015°35'7 7.3
2015-Aug-23 04:33N 38°34' E 015°30'  
2015-Aug-20 22:29N 43°14' E 010°07'23 2.8
2015-Aug-20 14:16N 43°35' E 010°19'0 0.0
2015-Aug-20 13:31N 43°35' E 010°19'0 0.0
2015-Aug-20 11:31N 43°35' E 010°19'0 0.0
2015-Aug-20 10:16N 43°35' E 010°19'0 0.0
2015-Aug-20 09:25N 43°35' E 010°19'0 0.0
2015-Aug-20 08:28N 43°35' E 010°19'0 0.0
2015-Aug-20 07:25N 43°35' E 010°19'0 0.0
2015-Aug-20 06:31N 43°35' E 010°19'33 2.0
2015-Aug-19 13:33N 43°03' E 010°06'  

Dump ship's entire track history